Terminal Aerodrome Forecast
Issued by NWS

Home | Current Version | Previous Version | Text Only | Print | Product List | Glossary On
Versions: 1 2 3 4 5 6 7 8 9 10 11 12 13 14 15 16 17 18 19 20 21 22 23 24 25
000
FTUS44 KLZK 231700
TAFLIT
TAF
KLIT 231737Z 2318/2418 18010KT 5SM -RA OVC010
      TEMPO 2318/2322 3SM -RA BR OVC006
     FM232200 19008KT 6SM BR OVC015
     FM240300 23012G22KT P6SM OVC015
     FM240600 27018G28KT P6SM OVC020
     FM241300 26018G28KT P6SM SCT030=

USA.gov is the U.S. government's official web portal to all federal, state and local government web resources and services.